createdAt,value
2019-02-07T00:00:59.805Z,1.00
2019-02-07T00:02:05.018Z,0.90
2019-02-07T00:03:09.946Z,1.00
2019-02-07T00:04:14.777Z,1.00
2019-02-07T00:05:19.933Z,1.00
2019-02-07T00:06:24.922Z,1.00
2019-02-07T00:07:29.860Z,1.00
2019-02-07T00:08:34.893Z,1.10
2019-02-07T00:09:39.816Z,1.00
2019-02-07T00:10:44.887Z,1.00
2019-02-07T00:11:49.780Z,1.00
2019-02-07T00:12:54.680Z,1.00
2019-02-07T00:13:59.586Z,1.00
2019-02-07T00:15:05.991Z,1.00
2019-02-07T00:16:11.119Z,1.00
2019-02-07T00:17:16.380Z,1.00
2019-02-07T00:18:21.481Z,1.00
2019-02-07T00:19:26.293Z,1.00
2019-02-07T00:20:31.417Z,1.00
2019-02-07T00:21:36.327Z,1.00
2019-02-07T00:22:41.162Z,1.00
2019-02-07T00:23:46.033Z,1.00
2019-02-07T00:24:50.852Z,1.00
2019-02-07T00:25:56.076Z,1.00
2019-02-07T00:27:00.987Z,1.00
2019-02-07T00:28:06.041Z,0.90
2019-02-07T00:29:10.968Z,0.90
2019-02-07T00:30:17.000Z,0.90
2019-02-07T00:31:21.863Z,0.90
2019-02-07T00:32:26.657Z,0.90
2019-02-07T00:33:31.449Z,0.90
2019-02-07T00:34:36.604Z,0.90
2019-02-07T00:35:41.680Z,1.00
2019-02-07T00:36:47.120Z,1.00
2019-02-07T00:38:08.097Z,1.00
2019-02-07T00:39:22.227Z,0.90
2019-02-07T00:40:27.223Z,0.90
2019-02-07T00:41:55.256Z,0.90
2019-02-07T00:43:00.016Z,0.90
2019-02-07T00:44:04.989Z,0.90
2019-02-07T00:45:12.132Z,0.90
2019-02-07T00:46:17.004Z,1.00
2019-02-07T00:47:21.876Z,0.90
2019-02-07T00:48:26.720Z,1.00
2019-02-07T00:49:31.607Z,1.00
2019-02-07T00:50:36.976Z,1.00
2019-02-07T00:51:42.078Z,0.90
2019-02-07T00:52:47.201Z,0.90
2019-02-07T00:53:52.077Z,0.90
2019-02-07T00:54:57.061Z,0.90
2019-02-07T00:56:01.864Z,0.90
2019-02-07T00:57:07.961Z,0.90
2019-02-07T00:58:12.943Z,0.90
2019-02-07T00:59:17.839Z,0.90
2019-02-07T01:00:24.072Z,0.90
2019-02-07T01:01:29.139Z,0.90
2019-02-07T01:02:33.968Z,0.80
2019-02-07T01:03:38.868Z,0.90
2019-02-07T01:04:43.876Z,0.90
2019-02-07T01:05:49.110Z,0.90
2019-02-07T01:06:54.023Z,0.90
2019-02-07T01:07:58.912Z,0.90
2019-02-07T01:09:05.647Z,0.90
2019-02-07T01:10:12.085Z,0.90
2019-02-07T01:11:16.963Z,0.90
2019-02-07T01:12:22.449Z,0.90
2019-02-07T01:13:27.798Z,0.90
2019-02-07T01:14:32.600Z,0.90
2019-02-07T01:15:37.340Z,1.00
2019-02-07T01:16:42.428Z,1.00
2019-02-07T01:17:47.372Z,1.00
2019-02-07T01:18:52.135Z,1.00
2019-02-07T01:19:57.013Z,0.90
2019-02-07T01:21:01.891Z,0.90
2019-02-07T01:22:07.075Z,0.90
2019-02-07T01:23:11.838Z,0.90
2019-02-07T01:24:16.752Z,0.90
2019-02-07T01:25:21.949Z,0.90
2019-02-07T01:26:26.862Z,0.90
2019-02-07T01:27:31.621Z,0.90
2019-02-07T01:28:36.645Z,0.90
2019-02-07T01:29:41.628Z,0.90
2019-02-07T01:30:46.812Z,0.90
2019-02-07T01:31:51.991Z,1.00
2019-02-07T01:32:57.119Z,1.00
2019-02-07T01:34:02.009Z,1.00
2019-02-07T01:35:07.139Z,0.90
2019-02-07T01:36:12.428Z,0.90
2019-02-07T01:37:17.364Z,1.00
2019-02-07T01:38:22.217Z,1.00
2019-02-07T01:39:27.076Z,1.00
2019-02-07T01:40:31.944Z,1.00
2019-02-07T01:41:36.840Z,1.00
2019-02-07T01:42:41.611Z,1.00
2019-02-07T01:43:46.475Z,0.90
2019-02-07T01:44:51.317Z,0.90
2019-02-07T01:45:56.227Z,0.80
2019-02-07T01:47:00.972Z,0.90
2019-02-07T01:48:05.957Z,0.80
2019-02-07T01:49:11.119Z,0.90
2019-02-07T01:50:17.952Z,0.90
2019-02-07T01:51:23.252Z,0.90
2019-02-07T01:52:28.132Z,0.90
2019-02-07T01:53:32.985Z,0.90
2019-02-07T01:54:37.848Z,0.90
2019-02-07T01:55:42.840Z,0.80
2019-02-07T01:56:47.647Z,0.80
2019-02-07T01:57:52.579Z,0.80
2019-02-07T01:58:57.364Z,0.90
2019-02-07T02:00:02.194Z,0.90
2019-02-07T02:01:08.081Z,0.90
2019-02-07T02:02:12.838Z,0.90
2019-02-07T02:03:17.600Z,0.80
2019-02-07T02:04:22.481Z,0.70
2019-02-07T02:05:27.352Z,0.70
2019-02-07T02:06:32.280Z,0.70
2019-02-07T02:07:37.048Z,0.70
2019-02-07T02:08:42.211Z,0.70
2019-02-07T02:09:47.361Z,0.80
2019-02-07T02:10:52.117Z,0.80
2019-02-07T02:11:57.128Z,0.80
2019-02-07T02:13:02.004Z,0.80
2019-02-07T02:14:08.043Z,0.80
2019-02-07T02:15:23.706Z,0.70
2019-02-07T02:16:19.728Z,0.80
2019-02-07T02:17:24.600Z,0.80
2019-02-07T02:18:29.332Z,0.80
2019-02-07T02:19:34.136Z,0.80
2019-02-07T02:20:39.053Z,0.80
2019-02-07T02:21:43.940Z,0.80
2019-02-07T02:22:48.808Z,0.90
2019-02-07T02:23:53.696Z,0.90
2019-02-07T02:24:58.591Z,0.90
2019-02-07T02:26:03.444Z,0.90
2019-02-07T02:27:08.411Z,0.90
2019-02-07T02:28:13.585Z,0.80
2019-02-07T02:29:19.147Z,0.90
2019-02-07T02:30:26.239Z,0.90
2019-02-07T02:31:31.087Z,0.80
2019-02-07T02:32:35.953Z,0.90
2019-02-07T02:33:40.862Z,0.80
2019-02-07T02:34:45.753Z,0.80
2019-02-07T02:35:50.528Z,0.70
2019-02-07T02:36:55.492Z,0.80
2019-02-07T02:38:00.229Z,0.80
2019-02-07T02:39:08.127Z,0.80
2019-02-07T02:40:13.361Z,0.90
2019-02-07T02:41:18.100Z,0.90
2019-02-07T02:42:22.961Z,0.90
2019-02-07T02:43:27.842Z,0.90
2019-02-07T02:44:33.795Z,0.90
2019-02-07T02:45:38.744Z,0.90
2019-02-07T02:46:43.641Z,0.90
2019-02-07T02:47:48.557Z,0.90
2019-02-07T02:48:53.912Z,0.90
2019-02-07T02:49:58.798Z,0.90
2019-02-07T02:51:03.666Z,0.70
2019-02-07T02:52:08.556Z,0.70
2019-02-07T02:53:13.310Z,0.70
2019-02-07T02:54:36.762Z,0.70
2019-02-07T02:55:43.553Z,0.70
2019-02-07T02:56:48.449Z,0.70
2019-02-07T02:57:53.308Z,0.70
2019-02-07T02:58:59.156Z,0.70
2019-02-07T03:00:06.728Z,0.70
2019-02-07T03:01:31.555Z,0.80
2019-02-07T03:02:54.193Z,0.80
2019-02-07T03:04:17.903Z,0.70
2019-02-07T03:05:33.984Z,0.70
2019-02-07T03:06:50.796Z,0.70
2019-02-07T03:08:13.369Z,0.70
2019-02-07T03:09:37.141Z,0.60
2019-02-07T03:10:56.587Z,0.70
2019-02-07T03:12:38.797Z,0.70
2019-02-07T03:14:17.588Z,0.60
2019-02-07T03:15:49.095Z,0.70
2019-02-07T03:17:05.316Z,0.80
2019-02-07T03:18:36.930Z,0.70
2019-02-07T03:19:54.986Z,0.60
2019-02-07T03:21:19.339Z,0.60
2019-02-07T03:22:41.744Z,0.60
2019-02-07T03:24:03.643Z,0.60
2019-02-07T03:25:26.500Z,0.60
2019-02-07T03:26:42.955Z,0.60
2019-02-07T03:28:13.376Z,0.60
2019-02-07T03:29:49.239Z,0.60
2019-02-07T03:31:22.327Z,0.60
2019-02-07T03:32:46.151Z,0.60
2019-02-07T03:34:18.821Z,0.70
2019-02-07T03:35:48.230Z,0.70
2019-02-07T03:37:08.705Z,0.80
2019-02-07T03:38:22.619Z,0.80
2019-02-07T03:39:45.038Z,0.70
2019-02-07T03:41:14.453Z,0.80
2019-02-07T03:42:36.589Z,0.70
2019-02-07T03:43:57.989Z,0.80
2019-02-07T03:45:31.297Z,0.70
2019-02-07T03:46:51.841Z,0.70
2019-02-07T03:48:07.988Z,0.70
2019-02-07T03:49:32.523Z,0.60
2019-02-07T03:50:56.376Z,0.60
2019-02-07T03:52:26.287Z,0.60
2019-02-07T03:53:59.060Z,0.70
2019-02-07T03:55:20.446Z,0.70
2019-02-07T03:56:43.752Z,0.70
2019-02-07T03:58:18.442Z,0.60
2019-02-07T03:59:48.262Z,0.70
2019-02-07T04:01:02.628Z,0.70
2019-02-07T04:02:31.112Z,0.60
2019-02-07T04:03:53.261Z,0.70
2019-02-07T04:05:15.623Z,0.70
2019-02-07T04:06:45.112Z,0.70
2019-02-07T04:08:04.218Z,0.70
2019-02-07T04:09:27.729Z,0.80
2019-02-07T04:10:58.508Z,0.80
2019-02-07T04:12:37.069Z,0.80
2019-02-07T04:13:56.599Z,0.70
2019-02-07T04:15:18.979Z,0.70
2019-02-07T04:16:37.160Z,0.70
2019-02-07T04:18:00.962Z,0.80
2019-02-07T04:19:28.549Z,0.80
2019-02-07T04:20:43.576Z,0.70
2019-02-07T04:22:06.088Z,0.80
2019-02-07T04:23:22.640Z,0.80
2019-02-07T04:24:46.534Z,0.70
2019-02-07T04:26:19.064Z,0.60
2019-02-07T04:27:51.684Z,0.60
2019-02-07T04:29:30.548Z,0.70
2019-02-07T04:31:12.244Z,0.70
2019-02-07T04:32:32.673Z,0.60
2019-02-07T04:33:56.409Z,0.60
2019-02-07T04:35:24.073Z,0.60
2019-02-07T04:37:02.744Z,0.60
2019-02-07T04:38:35.497Z,0.60
2019-02-07T04:39:55.172Z,0.70
2019-02-07T04:41:21.842Z,0.70
2019-02-07T04:42:40.980Z,0.70
2019-02-07T04:44:13.623Z,0.70
2019-02-07T04:45:55.420Z,0.70
2019-02-07T04:47:34.533Z,0.80
2019-02-07T04:48:47.960Z,0.80
2019-02-07T04:50:18.868Z,0.70
2019-02-07T04:51:45.524Z,0.70
2019-02-07T04:53:09.574Z,0.70
2019-02-07T04:54:29.127Z,0.70
2019-02-07T04:55:55.540Z,0.70
2019-02-07T04:57:19.116Z,0.70
2019-02-07T04:58:43.265Z,0.80
2019-02-07T05:00:09.937Z,0.80
2019-02-07T05:01:37.277Z,0.70
2019-02-07T05:03:00.908Z,0.80
2019-02-07T05:04:23.724Z,0.70
2019-02-07T05:05:50.733Z,0.70
2019-02-07T05:07:26.849Z,0.70
2019-02-07T05:08:50.584Z,0.70
2019-02-07T05:10:14.343Z,0.70
2019-02-07T05:11:36.690Z,0.70
2019-02-07T05:12:57.614Z,0.70
2019-02-07T05:14:36.527Z,0.80
2019-02-07T05:15:58.662Z,0.80
2019-02-07T05:17:22.598Z,0.70
2019-02-07T05:18:44.906Z,0.70
2019-02-07T05:20:07.420Z,0.70
2019-02-07T05:21:39.021Z,0.70
2019-02-07T05:23:06.098Z,0.70
2019-02-07T05:24:30.041Z,0.70
2019-02-07T05:26:08.731Z,0.60
2019-02-07T05:27:26.474Z,0.60
2019-02-07T05:28:56.225Z,0.70
2019-02-07T05:30:18.020Z,0.80
2019-02-07T05:31:37.640Z,0.70
2019-02-07T05:33:01.583Z,0.70
2019-02-07T05:34:22.320Z,0.70
2019-02-07T05:35:48.877Z,0.70
2019-02-07T05:37:21.643Z,0.70
2019-02-07T05:38:51.262Z,0.70
2019-02-07T05:40:24.455Z,0.70
2019-02-07T05:41:48.469Z,0.70
2019-02-07T05:43:10.930Z,0.70
2019-02-07T05:44:26.770Z,0.70
2019-02-07T05:45:50.644Z,0.70
2019-02-07T05:47:13.356Z,0.80
2019-02-07T05:48:46.347Z,0.80
2019-02-07T05:50:15.939Z,0.80
2019-02-07T05:51:38.944Z,0.90
2019-02-07T05:53:03.042Z,0.90
2019-02-07T05:54:42.219Z,0.90
2019-02-07T05:56:06.257Z,0.90
2019-02-07T05:57:24.201Z,0.80
2019-02-07T05:58:59.966Z,0.80
2019-02-07T06:00:25.773Z,0.80
2019-02-07T06:01:52.551Z,0.80
2019-02-07T06:03:19.744Z,0.80
2019-02-07T06:04:55.734Z,0.80
2019-02-07T06:06:18.107Z,0.80
2019-02-07T06:07:50.906Z,0.70
2019-02-07T06:09:26.807Z,0.70
2019-02-07T06:10:43.782Z,0.70
2019-02-07T06:12:06.435Z,0.70
2019-02-07T06:13:30.117Z,0.80
2019-02-07T06:14:51.409Z,0.70
2019-02-07T06:16:17.333Z,0.70
2019-02-07T06:17:59.300Z,0.60
2019-02-07T06:19:23.382Z,0.60
2019-02-07T06:21:05.476Z,0.60
2019-02-07T06:22:18.150Z,0.60
2019-02-07T06:23:42.878Z,0.60
2019-02-07T06:25:05.651Z,0.60
2019-02-07T06:26:29.414Z,0.70
2019-02-07T06:27:52.248Z,0.70
2019-02-07T06:29:14.341Z,0.70
2019-02-07T06:30:44.424Z,0.70
2019-02-07T06:32:07.154Z,0.70
2019-02-07T06:33:36.849Z,0.70
2019-02-07T06:35:03.240Z,0.70
2019-02-07T06:36:30.189Z,0.70
2019-02-07T06:37:46.843Z,0.70
2019-02-07T06:39:09.628Z,0.80
2019-02-07T06:40:51.783Z,0.80
2019-02-07T06:42:18.789Z,0.80
2019-02-07T06:43:54.834Z,0.80
2019-02-07T06:45:33.943Z,0.80
2019-02-07T06:46:57.678Z,0.80
2019-02-07T06:48:21.321Z,0.80
2019-02-07T06:49:48.185Z,0.70
2019-02-07T06:51:12.029Z,0.80
2019-02-07T06:52:45.069Z,0.80
2019-02-07T06:54:07.650Z,0.80
2019-02-07T06:55:40.677Z,0.80
2019-02-07T06:57:03.213Z,0.80
2019-02-07T06:58:26.002Z,0.80
2019-02-07T07:00:01.601Z,0.80
2019-02-07T07:01:27.409Z,0.80
2019-02-07T07:02:57.620Z,0.80
2019-02-07T07:04:12.123Z,0.70
2019-02-07T07:05:41.690Z,0.80
2019-02-07T07:06:56.173Z,0.80
2019-02-07T07:08:19.229Z,0.80
2019-02-07T07:09:41.549Z,0.90
2019-02-07T07:11:11.174Z,0.90
2019-02-07T07:12:33.469Z,1.00
2019-02-07T07:13:56.061Z,1.00
2019-02-07T07:15:10.195Z,1.00
2019-02-07T07:16:42.961Z,1.00
2019-02-07T07:18:08.693Z,1.00
2019-02-07T07:19:44.440Z,0.90
2019-02-07T07:21:08.271Z,0.90
2019-02-07T07:22:38.132Z,1.10
2019-02-07T07:24:14.138Z,1.10
2019-02-07T07:25:53.253Z,1.10
2019-02-07T07:27:23.464Z,1.20
2019-02-07T07:28:45.941Z,1.20
2019-02-07T07:30:12.710Z,1.10
2019-02-07T07:31:35.598Z,1.10
2019-02-07T07:32:59.483Z,1.10
2019-02-07T07:34:25.408Z,1.10
2019-02-07T07:35:52.024Z,1.10
2019-02-07T07:37:16.718Z,1.10
2019-02-07T07:38:40.525Z,1.00
2019-02-07T07:40:02.940Z,1.00
2019-02-07T07:41:25.889Z,1.10
2019-02-07T07:42:48.575Z,1.10
2019-02-07T07:44:09.742Z,1.10
2019-02-07T07:45:35.009Z,1.10
2019-02-07T07:46:53.360Z,1.00
2019-02-07T07:48:32.433Z,1.10
2019-02-07T07:50:02.330Z,1.10
2019-02-07T07:51:29.221Z,1.20
2019-02-07T07:52:51.845Z,1.30
2019-02-07T07:54:21.374Z,1.20
2019-02-07T07:55:45.586Z,1.30
2019-02-07T07:57:15.626Z,1.30
2019-02-07T07:58:45.250Z,1.40
2019-02-07T08:00:19.128Z,1.40
2019-02-07T08:01:42.671Z,1.50
2019-02-07T08:03:12.750Z,1.40
2019-02-07T08:04:38.222Z,1.40
2019-02-07T08:05:53.509Z,1.50
2019-02-07T08:07:08.839Z,1.50
2019-02-07T08:08:31.280Z,1.50
2019-02-07T08:09:55.264Z,1.50
2019-02-07T08:11:31.212Z,1.50
2019-02-07T08:13:02.710Z,1.60
2019-02-07T08:14:24.763Z,1.60
2019-02-07T08:15:47.159Z,1.60
2019-02-07T08:17:05.506Z,1.60
2019-02-07T08:18:29.534Z,1.80
2019-02-07T08:19:55.934Z,1.90
2019-02-07T08:21:18.347Z,1.90
2019-02-07T08:22:40.982Z,2.00
2019-02-07T08:24:03.646Z,2.00
2019-02-07T08:25:23.935Z,1.90
2019-02-07T08:26:56.658Z,1.90
2019-02-07T08:28:20.589Z,2.10
2019-02-07T08:29:44.676Z,2.10
2019-02-07T08:31:05.061Z,2.20
2019-02-07T08:32:28.595Z,2.40
2019-02-07T08:34:05.000Z,2.50
2019-02-07T08:35:29.398Z,2.60
2019-02-07T08:36:56.933Z,2.50
2019-02-07T08:38:17.477Z,2.60
2019-02-07T08:39:46.723Z,2.70
2019-02-07T08:41:17.336Z,2.70
2019-02-07T08:42:42.582Z,2.70
2019-02-07T08:44:06.503Z,2.80
2019-02-07T08:45:44.587Z,2.80
2019-02-07T08:47:23.821Z,2.90
2019-02-07T08:48:53.184Z,3.00
2019-02-07T08:50:05.406Z,3.00
2019-02-07T08:51:32.583Z,3.10
2019-02-07T08:52:55.452Z,3.10
2019-02-07T08:54:20.469Z,3.30
2019-02-07T08:55:49.784Z,3.30
2019-02-07T08:57:12.546Z,3.30
2019-02-07T08:58:42.239Z,3.40
2019-02-07T09:00:00.003Z,3.40
2019-02-07T09:01:29.906Z,3.50
2019-02-07T09:02:52.288Z,3.50
2019-02-07T09:04:25.292Z,3.60
2019-02-07T09:05:49.077Z,3.70
2019-02-07T09:07:15.654Z,3.70
2019-02-07T09:08:42.466Z,3.70
2019-02-07T09:10:12.113Z,3.80
2019-02-07T09:11:34.717Z,3.90
2019-02-07T09:12:55.274Z,4.00
2019-02-07T09:14:32.015Z,4.00
2019-02-07T09:16:02.572Z,4.10
2019-02-07T09:17:22.717Z,4.20
2019-02-07T09:18:58.744Z,4.10
2019-02-07T09:20:15.034Z,4.00
2019-02-07T09:21:38.332Z,4.00
2019-02-07T09:23:05.070Z,4.00
2019-02-07T09:24:38.370Z,4.00
2019-02-07T09:26:01.732Z,4.10
2019-02-07T09:27:28.878Z,4.10
2019-02-07T09:28:51.220Z,4.20
2019-02-07T09:30:30.339Z,4.30
2019-02-07T09:32:12.852Z,4.20
2019-02-07T09:33:36.711Z,4.20
2019-02-07T09:34:54.911Z,4.20
2019-02-07T09:36:17.392Z,4.30
2019-02-07T09:37:45.623Z,4.40
2019-02-07T09:39:15.576Z,4.60
2019-02-07T09:40:49.116Z,4.70
2019-02-07T09:42:12.935Z,4.70
2019-02-07T09:43:35.737Z,4.80
2019-02-07T09:45:02.021Z,4.90
2019-02-07T09:46:25.125Z,5.00
2019-02-07T09:47:57.537Z,5.00
2019-02-07T09:49:19.991Z,5.10
2019-02-07T09:50:36.160Z,5.30
2019-02-07T09:51:53.188Z,5.30
2019-02-07T09:53:10.720Z,5.20
2019-02-07T09:54:34.618Z,5.00
2019-02-07T09:56:01.176Z,5.00
2019-02-07T09:57:31.197Z,5.00
2019-02-07T09:58:48.356Z,5.00
2019-02-07T10:00:12.209Z,5.10
2019-02-07T10:01:41.709Z,5.20
2019-02-07T10:02:53.684Z,5.20
2019-02-07T10:04:21.913Z,5.30
2019-02-07T10:06:04.029Z,5.40
2019-02-07T10:07:34.031Z,5.40
2019-02-07T10:08:56.855Z,5.30
2019-02-07T10:10:32.736Z,5.30
2019-02-07T10:12:02.783Z,5.20
2019-02-07T10:13:38.630Z,5.20
2019-02-07T10:15:08.670Z,5.30
2019-02-07T10:16:24.861Z,5.30
2019-02-07T10:18:06.684Z,5.40
2019-02-07T10:19:35.347Z,5.50
2019-02-07T10:21:00.803Z,5.60
2019-02-07T10:22:28.796Z,5.60
2019-02-07T10:23:51.950Z,5.60
2019-02-07T10:25:28.460Z,5.50
2019-02-07T10:26:46.582Z,5.50
2019-02-07T10:28:08.978Z,5.40
2019-02-07T10:29:22.428Z,5.50
2019-02-07T10:30:47.389Z,5.50
2019-02-07T10:32:10.445Z,5.50
2019-02-07T10:33:40.546Z,5.40
2019-02-07T10:34:56.865Z,5.40
2019-02-07T10:36:21.229Z,5.50
2019-02-07T10:37:45.435Z,5.50
2019-02-07T10:39:12.220Z,5.60
2019-02-07T10:40:35.234Z,5.50
2019-02-07T10:42:05.114Z,5.50
2019-02-07T10:43:35.303Z,5.50
2019-02-07T10:44:59.427Z,5.50
2019-02-07T10:46:41.160Z,5.50
2019-02-07T10:48:13.871Z,5.50
2019-02-07T10:49:47.051Z,5.50
2019-02-07T10:51:27.266Z,5.40
2019-02-07T10:52:48.027Z,5.40
2019-02-07T10:54:14.725Z,5.30
2019-02-07T10:55:39.752Z,5.30
2019-02-07T10:57:15.470Z,5.30
2019-02-07T10:58:42.177Z,5.30
2019-02-07T11:00:07.621Z,5.40
2019-02-07T11:01:42.174Z,5.40
2019-02-07T11:03:05.479Z,5.40
2019-02-07T11:04:31.340Z,5.40
2019-02-07T11:05:54.608Z,5.30
2019-02-07T11:07:16.755Z,5.20
2019-02-07T11:08:39.395Z,5.20
2019-02-07T11:10:02.216Z,5.30
2019-02-07T11:11:41.393Z,5.20
2019-02-07T11:13:01.119Z,5.30
2019-02-07T11:14:18.031Z,5.30
2019-02-07T11:15:44.713Z,5.20
2019-02-07T11:17:13.352Z,5.30
2019-02-07T11:18:42.860Z,5.40
2019-02-07T11:20:06.922Z,5.40
2019-02-07T11:21:46.240Z,5.40
2019-02-07T11:23:12.840Z,5.30
2019-02-07T11:24:30.836Z,5.20
2019-02-07T11:26:06.912Z,5.20
2019-02-07T11:27:21.135Z,5.20
2019-02-07T11:28:43.696Z,5.30
2019-02-07T11:30:13.574Z,5.30
2019-02-07T11:31:52.321Z,5.30
2019-02-07T11:33:22.217Z,5.30
2019-02-07T11:35:01.641Z,5.30
2019-02-07T11:36:25.735Z,5.30
2019-02-07T11:38:01.668Z,5.20
2019-02-07T11:39:41.949Z,5.20
2019-02-07T11:41:08.293Z,5.30
2019-02-07T11:42:32.603Z,5.20
2019-02-07T11:43:55.439Z,5.20
2019-02-07T11:45:19.267Z,5.30
2019-02-07T11:46:42.305Z,5.30
2019-02-07T11:48:00.824Z,5.30
2019-02-07T11:49:27.441Z,5.30
2019-02-07T11:51:03.647Z,5.40
2019-02-07T11:52:33.476Z,5.50
2019-02-07T11:53:55.511Z,5.60
2019-02-07T11:55:17.304Z,5.70
2019-02-07T11:56:29.253Z,5.70
2019-02-07T11:57:51.541Z,5.80
2019-02-07T11:59:21.442Z,5.80
2019-02-07T12:00:49.805Z,5.80
2019-02-07T12:02:09.707Z,5.80
2019-02-07T12:03:31.936Z,5.80
2019-02-07T12:04:56.814Z,5.70
2019-02-07T12:06:23.516Z,5.70
2019-02-07T12:07:50.557Z,5.70
2019-02-07T12:09:15.174Z,5.80
2019-02-07T12:10:52.873Z,5.70
2019-02-07T12:12:22.707Z,5.80
2019-02-07T12:13:45.926Z,5.70
2019-02-07T12:15:12.615Z,5.60
2019-02-07T12:16:44.203Z,5.50
2019-02-07T12:18:24.231Z,5.50
2019-02-07T12:19:53.349Z,5.50
2019-02-07T12:21:26.297Z,5.50
2019-02-07T12:23:08.434Z,5.50
2019-02-07T12:24:36.456Z,5.50
2019-02-07T12:25:49.818Z,5.40
2019-02-07T12:27:23.973Z,5.50
2019-02-07T12:28:47.893Z,5.50
2019-02-07T12:30:19.704Z,5.40
2019-02-07T12:31:38.595Z,5.40
2019-02-07T12:32:54.183Z,5.30
2019-02-07T12:34:17.931Z,5.30
2019-02-07T12:35:56.726Z,5.20
2019-02-07T12:37:18.955Z,5.20
2019-02-07T12:38:48.313Z,5.20
2019-02-07T12:40:12.233Z,5.20
2019-02-07T12:41:41.875Z,5.20
2019-02-07T12:43:11.607Z,5.20
2019-02-07T12:44:37.892Z,5.20
2019-02-07T12:46:07.629Z,5.30
2019-02-07T12:47:30.245Z,5.30
2019-02-07T12:48:53.973Z,5.30
2019-02-07T12:50:20.763Z,5.30
2019-02-07T12:51:34.007Z,5.20
2019-02-07T12:53:08.977Z,5.20
2019-02-07T12:54:22.159Z,5.10
2019-02-07T12:56:03.953Z,5.10
2019-02-07T12:57:40.243Z,5.00
2019-02-07T12:59:30.226Z,4.90
2019-02-07T13:00:52.388Z,4.90
2019-02-07T13:02:15.198Z,4.80
2019-02-07T13:03:37.581Z,4.80
2019-02-07T13:05:04.393Z,4.70
2019-02-07T13:06:32.009Z,4.70
2019-02-07T13:07:55.798Z,4.70
2019-02-07T13:09:17.143Z,4.70
2019-02-07T13:10:39.846Z,4.70
2019-02-07T13:12:21.999Z,4.70
2019-02-07T13:13:56.152Z,4.70
2019-02-07T13:15:18.922Z,4.60
2019-02-07T13:16:41.475Z,4.60
2019-02-07T13:18:08.198Z,4.50
2019-02-07T13:19:24.100Z,4.50
2019-02-07T13:20:50.688Z,4.50
2019-02-07T13:22:13.343Z,4.50
2019-02-07T13:23:41.661Z,4.50
2019-02-07T13:25:11.483Z,4.50
2019-02-07T13:26:30.137Z,4.50
2019-02-07T13:27:52.611Z,4.50
2019-02-07T13:29:14.848Z,4.50
2019-02-07T13:30:54.702Z,4.50
2019-02-07T13:32:25.606Z,4.50
2019-02-07T13:33:42.775Z,4.50
2019-02-07T13:35:14.354Z,4.50
2019-02-07T13:36:35.795Z,4.50
2019-02-07T13:38:05.255Z,4.50
2019-02-07T13:39:21.096Z,4.50
2019-02-07T13:40:43.520Z,4.40
2019-02-07T13:42:07.476Z,4.40
2019-02-07T13:43:26.589Z,4.40
2019-02-07T13:44:50.118Z,4.50
2019-02-07T13:46:29.834Z,4.50
2019-02-07T13:47:49.685Z,4.50
2019-02-07T13:49:13.674Z,4.50
2019-02-07T13:50:49.977Z,4.50
2019-02-07T13:52:14.167Z,4.50
2019-02-07T13:53:38.635Z,4.40
2019-02-07T13:55:05.029Z,4.40
2019-02-07T13:56:27.196Z,4.40
2019-02-07T13:57:54.115Z,4.40
2019-02-07T13:59:17.205Z,4.40
2019-02-07T14:00:56.050Z,4.30
2019-02-07T14:02:37.880Z,4.40
2019-02-07T14:04:01.706Z,4.30
2019-02-07T14:05:26.840Z,4.30
2019-02-07T14:06:46.618Z,4.30
2019-02-07T14:08:38.202Z,4.30
2019-02-07T14:09:42.528Z,4.30
2019-02-07T14:11:21.058Z,4.20
2019-02-07T14:12:44.928Z,4.20
2019-02-07T14:14:14.791Z,4.20
2019-02-07T14:15:41.824Z,4.30
2019-02-07T14:17:14.329Z,4.20
2019-02-07T14:18:40.916Z,4.20
2019-02-07T14:20:03.830Z,4.20
2019-02-07T14:21:29.068Z,4.20
2019-02-07T14:23:04.749Z,4.20
2019-02-07T14:24:27.561Z,4.20
2019-02-07T14:25:57.621Z,4.20
2019-02-07T14:27:29.950Z,4.20
2019-02-07T14:28:47.501Z,4.20
2019-02-07T14:30:20.833Z,4.10
2019-02-07T14:31:47.234Z,4.10
2019-02-07T14:33:23.402Z,4.10
2019-02-07T14:34:50.678Z,4.10
2019-02-07T14:36:13.316Z,4.10
2019-02-07T14:37:37.288Z,4.00
2019-02-07T14:38:59.712Z,4.00
2019-02-07T14:40:24.654Z,4.00
2019-02-07T14:41:54.303Z,4.00
2019-02-07T14:43:18.136Z,4.00
2019-02-07T14:44:40.373Z,3.90
2019-02-07T14:45:57.748Z,3.90
2019-02-07T14:47:02.972Z,3.80
2019-02-07T14:48:09.532Z,3.80
2019-02-07T14:49:14.485Z,3.80
2019-02-07T14:50:20.247Z,3.80
2019-02-07T14:51:25.220Z,3.90
2019-02-07T14:52:30.328Z,3.90
2019-02-07T14:53:35.160Z,3.90
2019-02-07T14:54:40.063Z,3.90
2019-02-07T14:55:44.946Z,3.80
2019-02-07T14:56:49.938Z,3.80
2019-02-07T14:57:54.883Z,3.80
2019-02-07T14:59:01.416Z,3.70
2019-02-07T15:00:11.240Z,3.70
2019-02-07T15:01:16.291Z,3.70
2019-02-07T15:02:21.210Z,3.60
2019-02-07T15:03:26.045Z,3.60
2019-02-07T15:04:31.170Z,3.60
2019-02-07T15:05:36.213Z,3.60
2019-02-07T15:06:41.652Z,3.50
2019-02-07T15:07:47.072Z,3.40
2019-02-07T15:08:51.868Z,3.40
2019-02-07T15:09:56.615Z,3.40
2019-02-07T15:11:01.367Z,3.30
2019-02-07T15:12:06.394Z,3.30
2019-02-07T15:13:11.242Z,3.20
2019-02-07T15:14:16.125Z,3.20
2019-02-07T15:15:21.841Z,3.20
2019-02-07T15:16:26.600Z,3.20
2019-02-07T15:17:32.568Z,3.10
2019-02-07T15:18:37.690Z,3.10
2019-02-07T15:19:42.561Z,3.10
2019-02-07T15:20:48.350Z,3.00
2019-02-07T15:21:53.121Z,3.00
2019-02-07T15:22:57.945Z,3.00
2019-02-07T15:24:02.733Z,2.90
2019-02-07T15:25:07.827Z,2.90
2019-02-07T15:26:13.097Z,2.90
2019-02-07T15:27:18.514Z,2.90
2019-02-07T15:28:23.330Z,2.80
2019-02-07T15:29:28.727Z,2.80
2019-02-07T15:30:34.424Z,2.80
2019-02-07T15:31:39.331Z,2.80
2019-02-07T15:32:44.088Z,2.80
2019-02-07T15:33:48.897Z,2.70
2019-02-07T15:34:54.076Z,2.70
2019-02-07T15:35:59.052Z,2.70
2019-02-07T15:37:03.810Z,2.70
2019-02-07T15:38:08.800Z,2.70
2019-02-07T15:39:16.487Z,2.70
2019-02-07T15:40:25.448Z,2.60
2019-02-07T15:41:29.186Z,2.60
2019-02-07T15:42:34.078Z,2.60
2019-02-07T15:43:39.056Z,2.60
2019-02-07T15:44:43.849Z,2.60
2019-02-07T15:45:48.721Z,2.50
2019-02-07T15:46:53.963Z,2.50
2019-02-07T15:47:58.810Z,2.50
2019-02-07T15:49:03.650Z,2.50
2019-02-07T15:50:14.325Z,2.40
2019-02-07T15:51:19.448Z,2.40
2019-02-07T15:52:24.307Z,2.40
2019-02-07T15:53:29.072Z,2.30
2019-02-07T15:54:34.073Z,2.30
2019-02-07T15:55:39.055Z,2.30
2019-02-07T15:56:46.330Z,2.30
2019-02-07T15:57:51.484Z,2.30
2019-02-07T15:59:15.328Z,2.30
2019-02-07T16:02:52.689Z,2.10
2019-02-07T16:04:18.828Z,2.00
2019-02-07T16:05:24.140Z,2.10
2019-02-07T16:06:29.292Z,2.00
2019-02-07T16:07:34.355Z,2.00
2019-02-07T16:08:39.203Z,2.00
2019-02-07T16:09:44.000Z,2.00
2019-02-07T16:10:48.954Z,2.00
2019-02-07T16:11:53.813Z,2.00
2019-02-07T16:12:58.598Z,1.90
2019-02-07T16:14:03.368Z,1.90
2019-02-07T16:15:09.052Z,1.90
2019-02-07T16:16:14.034Z,1.90
2019-02-07T16:17:18.815Z,1.80
2019-02-07T16:18:23.701Z,1.80
2019-02-07T16:19:28.618Z,1.80
2019-02-07T16:20:33.599Z,1.80
2019-02-07T16:21:38.626Z,1.70
2019-02-07T16:22:43.745Z,1.80
2019-02-07T16:23:48.704Z,1.80
2019-02-07T16:24:53.900Z,1.70
2019-02-07T16:25:59.356Z,1.80
2019-02-07T16:27:05.030Z,1.80
2019-02-07T16:28:10.147Z,1.80
2019-02-07T16:29:15.263Z,1.70
2019-02-07T16:30:21.106Z,1.80
2019-02-07T16:31:26.144Z,1.70
2019-02-07T16:32:31.208Z,1.80
2019-02-07T16:33:36.318Z,1.80
2019-02-07T16:34:41.822Z,1.70
2019-02-07T16:35:46.792Z,1.70
2019-02-07T16:36:51.680Z,1.70
2019-02-07T16:37:56.985Z,1.70
2019-02-07T16:39:02.104Z,1.70
2019-02-07T16:40:08.242Z,1.70
2019-02-07T16:41:13.133Z,1.70
2019-02-07T16:42:17.933Z,1.70
2019-02-07T16:43:22.846Z,1.60
2019-02-07T16:44:27.683Z,1.70
2019-02-07T16:45:32.568Z,1.70
2019-02-07T16:46:37.800Z,1.60
2019-02-07T16:47:42.782Z,1.60
2019-02-07T16:48:47.633Z,1.60
2019-02-07T16:49:52.912Z,1.50
2019-02-07T16:51:00.227Z,1.50
2019-02-07T16:52:04.458Z,1.50
2019-02-07T16:53:09.438Z,1.50
2019-02-07T16:54:14.435Z,1.50
2019-02-07T16:55:19.500Z,1.50
2019-02-07T16:56:24.991Z,1.50
2019-02-07T16:57:29.858Z,1.50
2019-02-07T16:58:34.700Z,1.50
2019-02-07T16:59:39.482Z,1.50
2019-02-07T17:00:45.111Z,1.50
2019-02-07T17:01:49.993Z,1.50
2019-02-07T17:02:55.579Z,1.50
2019-02-07T17:04:00.537Z,1.50
2019-02-07T17:05:07.496Z,1.40
2019-02-07T17:06:12.670Z,1.40
2019-02-07T17:07:17.997Z,1.40
2019-02-07T17:08:22.816Z,1.40
2019-02-07T17:09:35.349Z,1.50
2019-02-07T17:10:40.600Z,1.40
2019-02-07T17:11:45.428Z,1.40
2019-02-07T17:12:50.208Z,1.50
2019-02-07T17:13:55.031Z,1.40
2019-02-07T17:14:59.785Z,1.40
2019-02-07T17:16:05.571Z,1.40
2019-02-07T17:17:10.411Z,1.30
2019-02-07T17:18:15.571Z,1.40
2019-02-07T17:19:20.564Z,1.40
2019-02-07T17:20:30.277Z,1.40
2019-02-07T17:21:35.237Z,1.40
2019-02-07T17:22:40.468Z,1.40
2019-02-07T17:23:45.719Z,1.40
2019-02-07T17:24:51.073Z,1.40
2019-02-07T17:25:56.205Z,1.40